Phoenix, AZ

1:21 PM MST on September 02, 2014 (GMT -0700)
Phoenix Sky Harbor International | Change Station
CLOSE
Current Station
Airport
Location: Phoenix,
Elevation: 1106 ft
Nearby Weather Stations

Elev 1106 ft 33.43 °N, 112.00 °W | Updated 30 minutes ago

Partly Cloudy
Partly Cloudy
104 °F
Feels Like 104 °F
N
7
Wind Variable Wind from ESE

Today
High -- | Low -- °F
--% Chance of Precip.
Yesterday
High -- | Low -- °F
Precip. -- in
6:02 AM 6:51 PM
First Quarter, 54% visible
Pressure 29.73 in
Visibility 10.0 miles
Clouds Few 12000 ft
Few 25000 ft
Dew Point 42 °F
Humidity 12%
Rainfall 0.00 in
Snow Depth Not available.
UV 10 out of 12
Pollen 6.50 out of 12
Ozone Good
PM2.5 Good
Flu Activity Not available.
METAR KPHX 021951Z 12006KT 10SM FEW120 FEW250 40/06 A2979 RMK AO2 SLP065 T04000056

More Conditions Fewer Conditions

Pressure 29.73 in
Visibility 10.0 miles
Clouds Few 12000 ft
Few 25000 ft
Dew Point 42 °F
Humidity 12%
Rainfall 0.00 in
Snow Depth Not available.
UV 10 out of 12
Pollen 6.50 out of 12
Ozone Good
PM2.5 Good
Flu Activity Not available.
METAR KPHX 021951Z 12006KT 10SM FEW120 FEW250 40/06 A2979 RMK AO2 SLP065 T04000056

More Conditions Fewer Conditions

10-Day Weather Forecast

Almanac

Astronomy

Sep. 02, 2014 Rise Set
Actual Time 6:02 AM MST 6:51 PM MST
Civil Twilight 5:37 AM MST 7:17 PM MST
Nautical Twilight 5:07 AM MST 7:46 PM MST
Astronomical Twilight 4:36 AM MST 8:17 PM MST
Moon 1:29 PM MST No Moon Set
Length of Visible Light 13h 39m
Length of Day
12h 49m
Tomorrow will be 1m 59s shorter.
First Quarter, 54% of the Moon is Illuminated
Today
First Quarter
Sep 8
Full
Sep 15
Last Quarter
Sep 24
New
Oct 1
First Quarter

Today's Extremes

State Highs State Lows

Community

WunderPhotos

Upload Photos

1,749,757 photos uploaded!

WunderBlogs® & News

By Dr. Jeff Masters
Director of Meteorology, Weather Underground
By Kari Strenfel
Meteorologist, Weather Underground
By Christopher C. Burt
Weather Historian, Weather Underground
September 2, 2014
September 2, 2014
September 2, 2014

Nearby

Air Quality

  Air Quality AQ Index Pollutant
Yesterday Good
OZONE
Yesterday Good
PM10
Current Good
OZONE
Current Good
PM2.5
Tuesday Moderate
OZONE
Tuesday Good
PM10
Tuesday Good
CO
Wednesday Moderate
OZONE
Wednesday Moderate
PM10
Wednesday Good
CO
Thursday Moderate
PM2.5
Thursday Moderate
OZONE
Thursday Good
CO

Snow Depth

Station Depth Elevation
Workman Creek 0 in 6900 ft
Beaver Head 41 in 7990 ft

Earthquake Activity

City Distance Mag. Time & Date
No recent earthquake activity has been reported nearby.
Minimum magnitude displayed is 2.5.

Coastal Water Temperatures

Place Temperature
No Stations Reporting

Nearby Weather Stations